sensor_id;sensor_type;location;lat;lon;timestamp;P1;durP1;ratioP1;P2;durP2;ratioP2
40997;SDS011;26740;45.944;12.480;2023-07-24T00:00:36;3.13;;;2.83;;
40997;SDS011;26740;45.944;12.480;2023-07-24T00:03:03;5.05;;;3.72;;
40997;SDS011;26740;45.944;12.480;2023-07-24T00:05:28;5.78;;;3.50;;
40997;SDS011;26740;45.944;12.480;2023-07-24T00:07:54;5.65;;;3.75;;
40997;SDS011;26740;45.944;12.480;2023-07-24T00:10:19;6.45;;;2.78;;
40997;SDS011;26740;45.944;12.480;2023-07-24T00:12:45;3.75;;;3.20;;
40997;SDS011;26740;45.944;12.480;2023-07-24T00:15:10;3.13;;;2.70;;
40997;SDS011;26740;45.944;12.480;2023-07-24T00:17:35;4.45;;;2.75;;
40997;SDS011;26740;45.944;12.480;2023-07-24T00:20:01;4.00;;;3.05;;
40997;SDS011;26740;45.944;12.480;2023-07-24T00:22:26;3.50;;;3.20;;
40997;SDS011;26740;45.944;12.480;2023-07-24T00:24:51;3.30;;;3.00;;
40997;SDS011;26740;45.944;12.480;2023-07-24T00:27:17;3.72;;;3.25;;
40997;SDS011;26740;45.944;12.480;2023-07-24T00:29:42;4.28;;;2.90;;
40997;SDS011;26740;45.944;12.480;2023-07-24T00:32:08;5.80;;;3.20;;
40997;SDS011;26740;45.944;12.480;2023-07-24T00:34:33;4.20;;;3.08;;
40997;SDS011;26740;45.944;12.480;2023-07-24T00:36:58;3.08;;;2.88;;
40997;SDS011;26740;45.944;12.480;2023-07-24T00:39:24;3.28;;;2.90;;
40997;SDS011;26740;45.944;12.480;2023-07-24T00:41:49;3.42;;;3.13;;
40997;SDS011;26740;45.944;12.480;2023-07-24T00:44:15;3.58;;;3.28;;
40997;SDS011;26740;45.944;12.480;2023-07-24T00:46:40;4.15;;;3.75;;
40997;SDS011;26740;45.944;12.480;2023-07-24T00:49:05;4.38;;;3.10;;
40997;SDS011;26740;45.944;12.480;2023-07-24T00:51:31;3.15;;;2.85;;
40997;SDS011;26740;45.944;12.480;2023-07-24T00:53:57;3.78;;;3.33;;
40997;SDS011;26740;45.944;12.480;2023-07-24T00:56:23;4.75;;;3.05;;
40997;SDS011;26740;45.944;12.480;2023-07-24T00:58:48;4.72;;;3.47;;
40997;SDS011;26740;45.944;12.480;2023-07-24T01:01:14;3.35;;;3.05;;
40997;SDS011;26740;45.944;12.480;2023-07-24T01:03:41;4.22;;;3.33;;
40997;SDS011;26740;45.944;12.480;2023-07-24T01:06:09;6.38;;;3.03;;
40997;SDS011;26740;45.944;12.480;2023-07-24T01:08:34;4.93;;;3.42;;
40997;SDS011;26740;45.944;12.480;2023-07-24T01:11:02;4.50;;;3.00;;
40997;SDS011;26740;45.944;12.480;2023-07-24T01:13:28;3.58;;;2.63;;
40997;SDS011;26740;45.944;12.480;2023-07-24T01:16:04;4.13;;;3.20;;
40997;SDS011;26740;45.944;12.480;2023-07-24T01:18:33;3.88;;;3.05;;
40997;SDS011;26740;45.944;12.480;2023-07-24T01:21:02;9.07;;;3.38;;
40997;SDS011;26740;45.944;12.480;2023-07-24T01:26:15;3.95;;;2.70;;
40997;SDS011;26740;45.944;12.480;2023-07-24T01:28:41;3.75;;;3.28;;
40997;SDS011;26740;45.944;12.480;2023-07-24T01:31:07;4.18;;;3.35;;
40997;SDS011;26740;45.944;12.480;2023-07-24T01:33:32;4.82;;;3.05;;
40997;SDS011;26740;45.944;12.480;2023-07-24T01:36:00;3.75;;;3.28;;
40997;SDS011;26740;45.944;12.480;2023-07-24T01:38:27;5.10;;;2.88;;
40997;SDS011;26740;45.944;12.480;2023-07-24T01:40:53;4.63;;;3.75;;
40997;SDS011;26740;45.944;12.480;2023-07-24T01:43:19;4.50;;;3.75;;
40997;SDS011;26740;45.944;12.480;2023-07-24T01:45:44;7.97;;;4.15;;
40997;SDS011;26740;45.944;12.480;2023-07-24T01:48:09;7.40;;;3.95;;
40997;SDS011;26740;45.944;12.480;2023-07-24T01:50:35;7.10;;;3.67;;
40997;SDS011;26740;45.944;12.480;2023-07-24T01:53:00;4.93;;;3.92;;
40997;SDS011;26740;45.944;12.480;2023-07-24T01:55:26;3.83;;;3.42;;
40997;SDS011;26740;45.944;12.480;2023-07-24T01:57:51;7.25;;;3.60;;
40997;SDS011;26740;45.944;12.480;2023-07-24T02:00:16;7.22;;;3.55;;
40997;SDS011;26740;45.944;12.480;2023-07-24T02:02:42;3.72;;;3.38;;
40997;SDS011;26740;45.944;12.480;2023-07-24T02:05:07;3.65;;;3.35;;
40997;SDS011;26740;45.944;12.480;2023-07-24T02:07:33;4.45;;;3.95;;
40997;SDS011;26740;45.944;12.480;2023-07-24T02:09:58;4.68;;;3.70;;
40997;SDS011;26740;45.944;12.480;2023-07-24T02:12:24;6.90;;;3.88;;
40997;SDS011;26740;45.944;12.480;2023-07-24T02:14:49;4.00;;;3.38;;
40997;SDS011;26740;45.944;12.480;2023-07-24T02:17:16;4.80;;;3.38;;
40997;SDS011;26740;45.944;12.480;2023-07-24T02:19:42;5.30;;;3.63;;
40997;SDS011;26740;45.944;12.480;2023-07-24T02:22:07;6.25;;;3.47;;
40997;SDS011;26740;45.944;12.480;2023-07-24T02:24:33;5.30;;;3.50;;
40997;SDS011;26740;45.944;12.480;2023-07-24T02:26:58;3.72;;;3.50;;
40997;SDS011;26740;45.944;12.480;2023-07-24T02:29:23;3.65;;;3.20;;
40997;SDS011;26740;45.944;12.480;2023-07-24T02:31:49;4.10;;;3.28;;
40997;SDS011;26740;45.944;12.480;2023-07-24T02:34:15;4.20;;;3.80;;
40997;SDS011;26740;45.944;12.480;2023-07-24T02:36:40;3.47;;;3.22;;
40997;SDS011;26740;45.944;12.480;2023-07-24T02:39:06;5.90;;;3.60;;
40997;SDS011;26740;45.944;12.480;2023-07-24T02:41:32;6.13;;;4.43;;
40997;SDS011;26740;45.944;12.480;2023-07-24T02:43:57;4.50;;;3.20;;
40997;SDS011;26740;45.944;12.480;2023-07-24T02:46:23;3.78;;;3.47;;
40997;SDS011;26740;45.944;12.480;2023-07-24T02:48:50;5.30;;;2.97;;
40997;SDS011;26740;45.944;12.480;2023-07-24T02:51:15;3.85;;;3.50;;
40997;SDS011;26740;45.944;12.480;2023-07-24T02:53:40;4.43;;;3.30;;
40997;SDS011;26740;45.944;12.480;2023-07-24T02:56:06;3.53;;;3.22;;
40997;SDS011;26740;45.944;12.480;2023-07-24T02:58:31;5.28;;;3.83;;
40997;SDS011;26740;45.944;12.480;2023-07-24T03:01:03;3.72;;;3.33;;
40997;SDS011;26740;45.944;12.480;2023-07-24T03:03:29;5.78;;;3.60;;
40997;SDS011;26740;45.944;12.480;2023-07-24T03:05:55;6.88;;;3.60;;
40997;SDS011;26740;45.944;12.480;2023-07-24T03:08:20;5.40;;;3.72;;
40997;SDS011;26740;45.944;12.480;2023-07-24T03:10:46;5.28;;;3.78;;
40997;SDS011;26740;45.944;12.480;2023-07-24T03:13:11;4.90;;;3.60;;
40997;SDS011;26740;45.944;12.480;2023-07-24T03:15:36;4.85;;;3.17;;
40997;SDS011;26740;45.944;12.480;2023-07-24T03:18:02;14.00;;;4.32;;
40997;SDS011;26740;45.944;12.480;2023-07-24T03:20:27;4.13;;;3.72;;
40997;SDS011;26740;45.944;12.480;2023-07-24T03:22:53;5.32;;;3.72;;
40997;SDS011;26740;45.944;12.480;2023-07-24T03:25:18;5.10;;;3.42;;
40997;SDS011;26740;45.944;12.480;2023-07-24T03:27:43;5.43;;;3.50;;
40997;SDS011;26740;45.944;12.480;2023-07-24T03:30:09;4.95;;;3.65;;
40997;SDS011;26740;45.944;12.480;2023-07-24T03:32:35;5.82;;;3.90;;
40997;SDS011;26740;45.944;12.480;2023-07-24T03:35:01;7.68;;;3.30;;
40997;SDS011;26740;45.944;12.480;2023-07-24T03:37:26;4.60;;;3.65;;
40997;SDS011;26740;45.944;12.480;2023-07-24T03:39:52;3.80;;;3.40;;
40997;SDS011;26740;45.944;12.480;2023-07-24T03:42:36;5.95;;;3.63;;
40997;SDS011;26740;45.944;12.480;2023-07-24T03:45:01;5.60;;;3.60;;
40997;SDS011;26740;45.944;12.480;2023-07-24T03:47:27;6.60;;;3.47;;
40997;SDS011;26740;45.944;12.480;2023-07-24T03:49:52;8.30;;;4.07;;
40997;SDS011;26740;45.944;12.480;2023-07-24T03:52:18;4.47;;;4.07;;
40997;SDS011;26740;45.944;12.480;2023-07-24T03:54:43;8.55;;;4.00;;
40997;SDS011;26740;45.944;12.480;2023-07-24T03:57:09;3.97;;;3.63;;
40997;SDS011;26740;45.944;12.480;2023-07-24T03:59:34;6.38;;;3.97;;
40997;SDS011;26740;45.944;12.480;2023-07-24T04:02:00;5.05;;;3.63;;
40997;SDS011;26740;45.944;12.480;2023-07-24T04:04:25;4.28;;;3.88;;
40997;SDS011;26740;45.944;12.480;2023-07-24T04:06:50;5.15;;;4.05;;
40997;SDS011;26740;45.944;12.480;2023-07-24T04:09:16;5.97;;;3.95;;
40997;SDS011;26740;45.944;12.480;2023-07-24T04:11:42;11.32;;;3.72;;
40997;SDS011;26740;45.944;12.480;2023-07-24T04:14:07;4.50;;;4.10;;
40997;SDS011;26740;45.944;12.480;2023-07-24T04:16:33;8.05;;;4.50;;
40997;SDS011;26740;45.944;12.480;2023-07-24T04:18:58;3.67;;;3.38;;
40997;SDS011;26740;45.944;12.480;2023-07-24T04:21:24;4.22;;;3.83;;
40997;SDS011;26740;45.944;12.480;2023-07-24T04:23:49;5.78;;;3.97;;
40997;SDS011;26740;45.944;12.480;2023-07-24T04:26:15;5.40;;;3.25;;
40997;SDS011;26740;45.944;12.480;2023-07-24T04:28:40;6.10;;;4.15;;
40997;SDS011;26740;45.944;12.480;2023-07-24T04:31:05;4.95;;;3.92;;
40997;SDS011;26740;45.944;12.480;2023-07-24T04:33:31;4.28;;;3.50;;
40997;SDS011;26740;45.944;12.480;2023-07-24T04:35:56;6.38;;;3.65;;
40997;SDS011;26740;45.944;12.480;2023-07-24T04:38:22;4.47;;;3.85;;
40997;SDS011;26740;45.944;12.480;2023-07-24T04:40:47;6.53;;;3.92;;
40997;SDS011;26740;45.944;12.480;2023-07-24T04:43:13;6.03;;;3.63;;
40997;SDS011;26740;45.944;12.480;2023-07-24T04:45:38;5.28;;;3.72;;
40997;SDS011;26740;45.944;12.480;2023-07-24T04:48:04;9.63;;;4.13;;
40997;SDS011;26740;45.944;12.480;2023-07-24T04:50:29;4.78;;;4.15;;
40997;SDS011;26740;45.944;12.480;2023-07-24T04:52:55;4.32;;;3.83;;
40997;SDS011;26740;45.944;12.480;2023-07-24T04:55:21;4.65;;;4.13;;
40997;SDS011;26740;45.944;12.480;2023-07-24T04:57:46;4.07;;;3.70;;
40997;SDS011;26740;45.944;12.480;2023-07-24T05:00:12;6.75;;;4.18;;
40997;SDS011;26740;45.944;12.480;2023-07-24T05:02:37;6.07;;;3.70;;
40997;SDS011;26740;45.944;12.480;2023-07-24T05:05:03;3.90;;;3.50;;
40997;SDS011;26740;45.944;12.480;2023-07-24T05:07:28;5.85;;;3.38;;
40997;SDS011;26740;45.944;12.480;2023-07-24T05:09:54;3.60;;;3.30;;
40997;SDS011;26740;45.944;12.480;2023-07-24T05:12:19;3.97;;;3.50;;
40997;SDS011;26740;45.944;12.480;2023-07-24T05:14:44;5.13;;;3.50;;
40997;SDS011;26740;45.944;12.480;2023-07-24T05:17:10;3.92;;;3.63;;
40997;SDS011;26740;45.944;12.480;2023-07-24T05:19:35;4.45;;;3.25;;
40997;SDS011;26740;45.944;12.480;2023-07-24T05:22:01;3.60;;;3.30;;
40997;SDS011;26740;45.944;12.480;2023-07-24T05:24:26;3.40;;;3.10;;
40997;SDS011;26740;45.944;12.480;2023-07-24T05:26:52;4.20;;;3.00;;
40997;SDS011;26740;45.944;12.480;2023-07-24T05:29:17;4.95;;;2.90;;
40997;SDS011;26740;45.944;12.480;2023-07-24T05:31:42;4.30;;;2.45;;
40997;SDS011;26740;45.944;12.480;2023-07-24T05:34:08;3.95;;;2.65;;
40997;SDS011;26740;45.944;12.480;2023-07-24T05:36:33;3.75;;;2.95;;
40997;SDS011;26740;45.944;12.480;2023-07-24T05:38:59;5.18;;;3.00;;
40997;SDS011;26740;45.944;12.480;2023-07-24T05:41:24;3.03;;;2.83;;
40997;SDS011;26740;45.944;12.480;2023-07-24T05:43:49;4.45;;;2.80;;
40997;SDS011;26740;45.944;12.480;2023-07-24T05:46:15;4.25;;;3.30;;
40997;SDS011;26740;45.944;12.480;2023-07-24T05:48:41;3.75;;;2.58;;
40997;SDS011;26740;45.944;12.480;2023-07-24T05:51:06;6.63;;;3.00;;
40997;SDS011;26740;45.944;12.480;2023-07-24T05:53:31;5.82;;;2.28;;
40997;SDS011;26740;45.944;12.480;2023-07-24T05:56:02;3.70;;;3.17;;
40997;SDS011;26740;45.944;12.480;2023-07-24T05:58:28;3.75;;;2.53;;
40997;SDS011;26740;45.944;12.480;2023-07-24T06:00:53;2.60;;;2.40;;
40997;SDS011;26740;45.944;12.480;2023-07-24T06:03:20;3.17;;;2.47;;
40997;SDS011;26740;45.944;12.480;2023-07-24T06:05:46;2.42;;;2.05;;
40997;SDS011;26740;45.944;12.480;2023-07-24T06:08:11;3.58;;;2.75;;
40997;SDS011;26740;45.944;12.480;2023-07-24T06:10:37;2.90;;;2.50;;
40997;SDS011;26740;45.944;12.480;2023-07-24T06:13:02;3.42;;;2.35;;
40997;SDS011;26740;45.944;12.480;2023-07-24T06:15:28;3.40;;;2.22;;
40997;SDS011;26740;45.944;12.480;2023-07-24T06:17:53;3.63;;;2.55;;
40997;SDS011;26740;45.944;12.480;2023-07-24T06:20:18;5.63;;;2.33;;
40997;SDS011;26740;45.944;12.480;2023-07-24T06:22:44;3.38;;;2.35;;
40997;SDS011;26740;45.944;12.480;2023-07-24T06:25:09;5.90;;;2.05;;
40997;SDS011;26740;45.944;12.480;2023-07-24T06:27:35;2.55;;;1.90;;
40997;SDS011;26740;45.944;12.480;2023-07-24T06:30:00;2.63;;;2.15;;
40997;SDS011;26740;45.944;12.480;2023-07-24T06:32:26;3.30;;;1.80;;
40997;SDS011;26740;45.944;12.480;2023-07-24T06:34:51;2.67;;;2.40;;
40997;SDS011;26740;45.944;12.480;2023-07-24T06:37:16;3.92;;;2.00;;
40997;SDS011;26740;45.944;12.480;2023-07-24T06:39:42;3.17;;;2.05;;
40997;SDS011;26740;45.944;12.480;2023-07-24T06:42:08;4.63;;;2.17;;
40997;SDS011;26740;45.944;12.480;2023-07-24T06:44:34;3.67;;;2.30;;
40997;SDS011;26740;45.944;12.480;2023-07-24T06:46:59;4.30;;;2.28;;
40997;SDS011;26740;45.944;12.480;2023-07-24T06:49:25;6.63;;;2.65;;
40997;SDS011;26740;45.944;12.480;2023-07-24T06:51:50;5.28;;;2.78;;
40997;SDS011;26740;45.944;12.480;2023-07-24T06:54:16;4.05;;;2.10;;
40997;SDS011;26740;45.944;12.480;2023-07-24T06:56:41;5.93;;;2.17;;
40997;SDS011;26740;45.944;12.480;2023-07-24T06:59:07;3.30;;;2.05;;
40997;SDS011;26740;45.944;12.480;2023-07-24T07:01:32;4.43;;;2.05;;
40997;SDS011;26740;45.944;12.480;2023-07-24T07:03:58;5.22;;;2.15;;
40997;SDS011;26740;45.944;12.480;2023-07-24T07:06:23;3.70;;;2.40;;
40997;SDS011;26740;45.944;12.480;2023-07-24T07:08:49;3.30;;;2.53;;
40997;SDS011;26740;45.944;12.480;2023-07-24T07:11:14;5.45;;;2.80;;
40997;SDS011;26740;45.944;12.480;2023-07-24T07:13:40;2.63;;;2.42;;
40997;SDS011;26740;45.944;12.480;2023-07-24T07:16:05;4.15;;;2.95;;
40997;SDS011;26740;45.944;12.480;2023-07-24T07:18:31;2.92;;;2.33;;
40997;SDS011;26740;45.944;12.480;2023-07-24T07:20:56;6.80;;;2.75;;
40997;SDS011;26740;45.944;12.480;2023-07-24T07:23:21;4.78;;;2.60;;
40997;SDS011;26740;45.944;12.480;2023-07-24T07:25:47;4.82;;;2.75;;
40997;SDS011;26740;45.944;12.480;2023-07-24T07:28:15;3.38;;;2.75;;
40997;SDS011;26740;45.944;12.480;2023-07-24T07:30:41;3.15;;;2.83;;
40997;SDS011;26740;45.944;12.480;2023-07-24T07:33:07;6.72;;;3.10;;
40997;SDS011;26740;45.944;12.480;2023-07-24T07:35:32;5.78;;;2.95;;
40997;SDS011;26740;45.944;12.480;2023-07-24T07:37:58;4.18;;;2.90;;
40997;SDS011;26740;45.944;12.480;2023-07-24T07:40:24;3.78;;;2.65;;
40997;SDS011;26740;45.944;12.480;2023-07-24T07:42:49;3.85;;;2.50;;
40997;SDS011;26740;45.944;12.480;2023-07-24T07:45:15;4.03;;;2.58;;
40997;SDS011;26740;45.944;12.480;2023-07-24T07:47:40;4.78;;;3.15;;
40997;SDS011;26740;45.944;12.480;2023-07-24T07:50:05;7.38;;;2.53;;
40997;SDS011;26740;45.944;12.480;2023-07-24T07:52:31;4.70;;;2.70;;
40997;SDS011;26740;45.944;12.480;2023-07-24T07:54:57;2.95;;;2.30;;
40997;SDS011;26740;45.944;12.480;2023-07-24T07:57:22;2.65;;;2.45;;
40997;SDS011;26740;45.944;12.480;2023-07-24T07:59:47;4.63;;;2.90;;
40997;SDS011;26740;45.944;12.480;2023-07-24T08:02:13;3.92;;;3.08;;
40997;SDS011;26740;45.944;12.480;2023-07-24T08:04:38;5.80;;;2.78;;
40997;SDS011;26740;45.944;12.480;2023-07-24T08:07:04;4.05;;;2.60;;
40997;SDS011;26740;45.944;12.480;2023-07-24T08:09:29;4.25;;;2.97;;
40997;SDS011;26740;45.944;12.480;2023-07-24T08:11:55;4.18;;;2.83;;
40997;SDS011;26740;45.944;12.480;2023-07-24T08:14:20;4.65;;;2.80;;
40997;SDS011;26740;45.944;12.480;2023-07-24T08:16:49;2.80;;;2.28;;
40997;SDS011;26740;45.944;12.480;2023-07-24T08:19:15;5.43;;;2.30;;
40997;SDS011;26740;45.944;12.480;2023-07-24T08:21:40;3.83;;;2.63;;
40997;SDS011;26740;45.944;12.480;2023-07-24T08:24:06;2.55;;;1.88;;
40997;SDS011;26740;45.944;12.480;2023-07-24T08:26:32;5.25;;;2.85;;
40997;SDS011;26740;45.944;12.480;2023-07-24T08:28:57;6.15;;;2.60;;
40997;SDS011;26740;45.944;12.480;2023-07-24T08:31:22;3.25;;;2.15;;
40997;SDS011;26740;45.944;12.480;2023-07-24T08:33:48;5.13;;;2.97;;
40997;SDS011;26740;45.944;12.480;2023-07-24T08:36:14;5.88;;;2.63;;
40997;SDS011;26740;45.944;12.480;2023-07-24T08:38:39;4.65;;;2.17;;
40997;SDS011;26740;45.944;12.480;2023-07-24T08:41:06;5.15;;;2.85;;
40997;SDS011;26740;45.944;12.480;2023-07-24T08:43:34;5.90;;;2.88;;
40997;SDS011;26740;45.944;12.480;2023-07-24T08:46:00;3.33;;;2.42;;
40997;SDS011;26740;45.944;12.480;2023-07-24T08:48:29;5.47;;;2.58;;
40997;SDS011;26740;45.944;12.480;2023-07-24T08:50:55;3.10;;;2.72;;
40997;SDS011;26740;45.944;12.480;2023-07-24T08:53:21;3.63;;;3.22;;
40997;SDS011;26740;45.944;12.480;2023-07-24T08:55:50;4.63;;;2.70;;
40997;SDS011;26740;45.944;12.480;2023-07-24T08:58:16;3.88;;;3.15;;
40997;SDS011;26740;45.944;12.480;2023-07-24T09:00:42;5.90;;;3.78;;
40997;SDS011;26740;45.944;12.480;2023-07-24T09:03:07;5.15;;;3.15;;
40997;SDS011;26740;45.944;12.480;2023-07-24T09:05:33;4.60;;;3.25;;
40997;SDS011;26740;45.944;12.480;2023-07-24T09:07:59;5.40;;;3.20;;
40997;SDS011;26740;45.944;12.480;2023-07-24T09:10:27;5.55;;;2.97;;
40997;SDS011;26740;45.944;12.480;2023-07-24T09:12:54;4.18;;;2.80;;
40997;SDS011;26740;45.944;12.480;2023-07-24T09:15:19;8.13;;;3.13;;
40997;SDS011;26740;45.944;12.480;2023-07-24T09:17:51;3.80;;;2.33;;
40997;SDS011;26740;45.944;12.480;2023-07-24T09:20:17;5.50;;;2.63;;
40997;SDS011;26740;45.944;12.480;2023-07-24T09:22:52;6.25;;;2.92;;
40997;SDS011;26740;45.944;12.480;2023-07-24T09:25:18;6.65;;;2.83;;
40997;SDS011;26740;45.944;12.480;2023-07-24T09:27:43;5.82;;;2.40;;
40997;SDS011;26740;45.944;12.480;2023-07-24T09:30:12;3.25;;;2.83;;
40997;SDS011;26740;45.944;12.480;2023-07-24T09:32:39;5.35;;;3.22;;
40997;SDS011;26740;45.944;12.480;2023-07-24T09:35:15;15.93;;;3.60;;
40997;SDS011;26740;45.944;12.480;2023-07-24T09:37:40;6.45;;;3.20;;
40997;SDS011;26740;45.944;12.480;2023-07-24T09:40:06;5.82;;;3.33;;
40997;SDS011;26740;45.944;12.480;2023-07-24T09:42:32;6.32;;;3.30;;
40997;SDS011;26740;45.944;12.480;2023-07-24T09:44:58;9.25;;;3.63;;
40997;SDS011;26740;45.944;12.480;2023-07-24T09:47:23;8.35;;;3.22;;
40997;SDS011;26740;45.944;12.480;2023-07-24T09:49:50;6.63;;;3.33;;
40997;SDS011;26740;45.944;12.480;2023-07-24T09:52:16;5.75;;;3.83;;
40997;SDS011;26740;45.944;12.480;2023-07-24T09:54:48;5.68;;;3.22;;
40997;SDS011;26740;45.944;12.480;2023-07-24T09:57:15;5.30;;;3.22;;
40997;SDS011;26740;45.944;12.480;2023-07-24T09:59:41;3.90;;;3.53;;
40997;SDS011;26740;45.944;12.480;2023-07-24T10:02:08;5.28;;;3.03;;
40997;SDS011;26740;45.944;12.480;2023-07-24T10:04:36;8.13;;;2.78;;
40997;SDS011;26740;45.944;12.480;2023-07-24T10:07:03;4.60;;;3.70;;
40997;SDS011;26740;45.944;12.480;2023-07-24T10:09:29;3.97;;;3.58;;
40997;SDS011;26740;45.944;12.480;2023-07-24T10:11:55;4.20;;;3.08;;
40997;SDS011;26740;45.944;12.480;2023-07-24T10:14:21;5.93;;;3.50;;
40997;SDS011;26740;45.944;12.480;2023-07-24T10:16:47;3.63;;;3.10;;
40997;SDS011;26740;45.944;12.480;2023-07-24T10:19:14;3.65;;;2.80;;
40997;SDS011;26740;45.944;12.480;2023-07-24T10:21:50;4.55;;;3.38;;
40997;SDS011;26740;45.944;12.480;2023-07-24T10:24:16;4.15;;;3.03;;
40997;SDS011;26740;45.944;12.480;2023-07-24T10:26:42;5.28;;;3.53;;
40997;SDS011;26740;45.944;12.480;2023-07-24T10:29:08;7.93;;;3.25;;
40997;SDS011;26740;45.944;12.480;2023-07-24T10:31:34;2.90;;;2.60;;
40997;SDS011;26740;45.944;12.480;2023-07-24T10:34:05;3.97;;;3.10;;
40997;SDS011;26740;45.944;12.480;2023-07-24T10:36:35;5.82;;;3.67;;
40997;SDS011;26740;45.944;12.480;2023-07-24T10:39:00;4.27;;;3.17;;
40997;SDS011;26740;45.944;12.480;2023-07-24T10:41:37;4.80;;;3.10;;
40997;SDS011;26740;45.944;12.480;2023-07-24T10:44:02;4.68;;;3.15;;
40997;SDS011;26740;45.944;12.480;2023-07-24T10:46:40;4.35;;;3.08;;
40997;SDS011;26740;45.944;12.480;2023-07-24T10:49:07;3.13;;;2.60;;
40997;SDS011;26740;45.944;12.480;2023-07-24T10:51:33;6.05;;;3.50;;
40997;SDS011;26740;45.944;12.480;2023-07-24T10:54:00;3.58;;;3.28;;
40997;SDS011;26740;45.944;12.480;2023-07-24T10:56:26;4.10;;;3.30;;
40997;SDS011;26740;45.944;12.480;2023-07-24T10:58:51;3.97;;;3.58;;
40997;SDS011;26740;45.944;12.480;2023-07-24T11:01:17;4.07;;;3.67;;
40997;SDS011;26740;45.944;12.480;2023-07-24T11:03:42;5.57;;;3.50;;
40997;SDS011;26740;45.944;12.480;2023-07-24T11:06:15;5.90;;;3.38;;
40997;SDS011;26740;45.944;12.480;2023-07-24T11:08:41;6.22;;;3.92;;
40997;SDS011;26740;45.944;12.480;2023-07-24T11:11:07;3.50;;;3.20;;
40997;SDS011;26740;45.944;12.480;2023-07-24T11:13:33;5.78;;;3.67;;
40997;SDS011;26740;45.944;12.480;2023-07-24T11:16:03;4.82;;;3.90;;
40997;SDS011;26740;45.944;12.480;2023-07-24T11:18:29;6.93;;;4.00;;
40997;SDS011;26740;45.944;12.480;2023-07-24T11:20:55;5.07;;;3.50;;
40997;SDS011;26740;45.944;12.480;2023-07-24T11:23:21;10.82;;;3.60;;
40997;SDS011;26740;45.944;12.480;2023-07-24T11:25:47;5.88;;;3.58;;
40997;SDS011;26740;45.944;12.480;2023-07-24T11:28:14;5.65;;;3.85;;
40997;SDS011;26740;45.944;12.480;2023-07-24T11:30:40;4.18;;;3.35;;
40997;SDS011;26740;45.944;12.480;2023-07-24T11:33:07;4.90;;;3.70;;
40997;SDS011;26740;45.944;12.480;2023-07-24T11:35:33;5.95;;;2.85;;
40997;SDS011;26740;45.944;12.480;2023-07-24T11:37:58;3.88;;;2.90;;
40997;SDS011;26740;45.944;12.480;2023-07-24T11:40:37;4.72;;;3.15;;
40997;SDS011;26740;45.944;12.480;2023-07-24T11:43:03;11.20;;;3.33;;
40997;SDS011;26740;45.944;12.480;2023-07-24T11:45:29;8.20;;;3.30;;
40997;SDS011;26740;45.944;12.480;2023-07-24T11:47:54;5.43;;;3.90;;
40997;SDS011;26740;45.944;12.480;2023-07-24T11:50:21;4.10;;;3.70;;
40997;SDS011;26740;45.944;12.480;2023-07-24T11:52:48;4.90;;;4.35;;
40997;SDS011;26740;45.944;12.480;2023-07-24T11:55:14;4.22;;;3.55;;
40997;SDS011;26740;45.944;12.480;2023-07-24T11:57:40;9.25;;;4.10;;
40997;SDS011;26740;45.944;12.480;2023-07-24T12:00:16;5.45;;;3.25;;
40997;SDS011;26740;45.944;12.480;2023-07-24T12:02:42;9.25;;;3.15;;
40997;SDS011;26740;45.944;12.480;2023-07-24T12:05:09;6.22;;;3.47;;
40997;SDS011;26740;45.944;12.480;2023-07-24T12:07:35;3.83;;;3.42;;
40997;SDS011;26740;45.944;12.480;2023-07-24T12:10:01;5.57;;;3.92;;
40997;SDS011;26740;45.944;12.480;2023-07-24T12:12:36;3.67;;;3.30;;
40997;SDS011;26740;45.944;12.480;2023-07-24T12:15:01;5.90;;;3.67;;
40997;SDS011;26740;45.944;12.480;2023-07-24T12:17:27;7.70;;;3.92;;
40997;SDS011;26740;45.944;12.480;2023-07-24T12:19:52;3.20;;;2.97;;
40997;SDS011;26740;45.944;12.480;2023-07-24T12:22:18;4.00;;;3.53;;
40997;SDS011;26740;45.944;12.480;2023-07-24T12:24:44;5.20;;;3.85;;
40997;SDS011;26740;45.944;12.480;2023-07-24T12:27:09;4.00;;;3.63;;
40997;SDS011;26740;45.944;12.480;2023-07-24T12:29:34;4.00;;;3.55;;
40997;SDS011;26740;45.944;12.480;2023-07-24T12:32:00;5.18;;;3.65;;
40997;SDS011;26740;45.944;12.480;2023-07-24T12:34:25;6.35;;;4.47;;
40997;SDS011;26740;45.944;12.480;2023-07-24T12:36:51;5.63;;;3.30;;
40997;SDS011;26740;45.944;12.480;2023-07-24T12:39:17;5.07;;;3.80;;
40997;SDS011;26740;45.944;12.480;2023-07-24T12:41:42;3.65;;;3.35;;
40997;SDS011;26740;45.944;12.480;2023-07-24T12:44:08;5.10;;;3.53;;
40997;SDS011;26740;45.944;12.480;2023-07-24T12:46:33;3.58;;;3.25;;
40997;SDS011;26740;45.944;12.480;2023-07-24T12:48:58;5.05;;;4.05;;
40997;SDS011;26740;45.944;12.480;2023-07-24T12:51:24;7.75;;;3.75;;
40997;SDS011;26740;45.944;12.480;2023-07-24T12:53:49;4.30;;;3.58;;
40997;SDS011;26740;45.944;12.480;2023-07-24T12:56:15;5.57;;;3.88;;
40997;SDS011;26740;45.944;12.480;2023-07-24T12:58:40;3.72;;;3.40;;
40997;SDS011;26740;45.944;12.480;2023-07-24T13:01:05;3.90;;;3.60;;
40997;SDS011;26740;45.944;12.480;2023-07-24T13:03:31;7.75;;;3.45;;
40997;SDS011;26740;45.944;12.480;2023-07-24T13:05:57;4.82;;;3.28;;
40997;SDS011;26740;45.944;12.480;2023-07-24T13:08:22;9.10;;;3.30;;
40997;SDS011;26740;45.944;12.480;2023-07-24T13:10:48;4.15;;;3.53;;
40997;SDS011;26740;45.944;12.480;2023-07-24T13:13:14;5.38;;;3.60;;
40997;SDS011;26740;45.944;12.480;2023-07-24T13:15:39;5.40;;;3.33;;
40997;SDS011;26740;45.944;12.480;2023-07-24T13:18:05;4.47;;;3.65;;
40997;SDS011;26740;45.944;12.480;2023-07-24T13:20:30;8.63;;;3.38;;
40997;SDS011;26740;45.944;12.480;2023-07-24T13:22:55;5.18;;;3.75;;
40997;SDS011;26740;45.944;12.480;2023-07-24T13:25:21;4.15;;;3.20;;
40997;SDS011;26740;45.944;12.480;2023-07-24T13:27:46;7.05;;;3.70;;
40997;SDS011;26740;45.944;12.480;2023-07-24T13:30:11;4.88;;;3.65;;
40997;SDS011;26740;45.944;12.480;2023-07-24T13:32:37;4.88;;;3.50;;
40997;SDS011;26740;45.944;12.480;2023-07-24T13:35:02;7.82;;;3.65;;
40997;SDS011;26740;45.944;12.480;2023-07-24T13:37:29;5.07;;;3.70;;
40997;SDS011;26740;45.944;12.480;2023-07-24T13:39:54;7.85;;;4.20;;
40997;SDS011;26740;45.944;12.480;2023-07-24T13:42:20;6.90;;;4.38;;
40997;SDS011;26740;45.944;12.480;2023-07-24T13:44:46;6.50;;;3.88;;
40997;SDS011;26740;45.944;12.480;2023-07-24T13:47:11;4.57;;;4.03;;
40997;SDS011;26740;45.944;12.480;2023-07-24T13:49:37;7.30;;;4.43;;
40997;SDS011;26740;45.944;12.480;2023-07-24T13:52:02;6.72;;;3.75;;
40997;SDS011;26740;45.944;12.480;2023-07-24T13:54:27;8.00;;;4.15;;
40997;SDS011;26740;45.944;12.480;2023-07-24T13:56:53;7.65;;;4.43;;
40997;SDS011;26740;45.944;12.480;2023-07-24T13:59:18;4.95;;;4.28;;
40997;SDS011;26740;45.944;12.480;2023-07-24T14:01:44;3.83;;;3.53;;
40997;SDS011;26740;45.944;12.480;2023-07-24T14:04:09;5.65;;;4.22;;
40997;SDS011;26740;45.944;12.480;2023-07-24T14:06:37;5.45;;;3.72;;
40997;SDS011;26740;45.944;12.480;2023-07-24T14:09:02;5.25;;;4.10;;
40997;SDS011;26740;45.944;12.480;2023-07-24T14:11:28;4.93;;;4.03;;
40997;SDS011;26740;45.944;12.480;2023-07-24T14:13:54;4.68;;;4.18;;
40997;SDS011;26740;45.944;12.480;2023-07-24T14:16:19;5.00;;;4.25;;
40997;SDS011;26740;45.944;12.480;2023-07-24T14:18:45;7.18;;;4.10;;
40997;SDS011;26740;45.944;12.480;2023-07-24T14:21:10;6.38;;;4.38;;
40997;SDS011;26740;45.944;12.480;2023-07-24T14:23:35;5.45;;;4.53;;
40997;SDS011;26740;45.944;12.480;2023-07-24T14:26:01;5.00;;;4.50;;
40997;SDS011;26740;45.944;12.480;2023-07-24T14:28:26;5.88;;;4.55;;